Terminal Aerodrome Forecast
Issued by NWS

Home | Current Version | Previous Version | Text Only | Print | Product List | Glossary On
Versions: 1 2 3 4 5 6 7 8 9 10 11 12
000
FTUS46 KSTO 231700 RRA
TAFRBL
TAF
KRBL 231742Z 2318/2418 34013KT P6SM SKC
     FM240200 16006KT P6SM SKC
     FM240600 33005KT P6SM SKC=

USA.gov is the U.S. government's official web portal to all federal, state and local government web resources and services.